Home > Products > Valid Products > TAF

000
FTUS43 KABR 240100 AAA
TAFATY
TAF AMD
KATY 240121Z 2401/2424 32022G30KT P6SM OVC016
     FM241000 34025G34KT P6SM OVC040
     FM241900 34020G30KT P6SM SCT050=



000
FTUS43 KABR 232300
TAFMBG
TAF
KMBG 232333Z 2400/2424 32022G31KT P6SM OVC030
     FM241000 33020G30KT P6SM SCT040
     FM241800 33015G23KT P6SM FEW050=



000
FTUS43 KABR 232300
TAFABR
TAF
KABR 232333Z 2400/2424 31023G28KT P6SM OVC026
     FM240600 34020G30KT P6SM OVC040
     FM241600 34018G28KT P6SM SCT050=



000
FTUS43 KABR 232300
TAFPIR
TAF
KPIR 232333Z 2400/2424 32019G27KT P6SM OVC040
     FM241000 32023G31KT P6SM SCT050
     FM241300 32023G31KT P6SM FEW050=



000
FTUS43 KABR 232300
TAFATY
TAF
KATY 232333Z 2400/2424 31019G29KT P6SM BKN026 OVC030
     FM241000 34025G34KT P6SM OVC040
     FM241900 34020G30KT P6SM SCT050=



000
FTUS43 KABR 232300 AAA
TAFMBG
TAF AMD
KMBG 232301Z 2323/2418 32024G31KT P6SM OVC028
     FM240200 33019KT P6SM OVC040
     FM241200 33017KT P6SM BKN040
     FM241500 33018KT P6SM FEW050=



000
FTUS43 KABR 232200 AAB
TAFABR
TAF AMD
KABR 232207Z 2322/2418 31021G29KT P6SM BKN027 OVC035
     FM240500 34020G30KT P6SM OVC050
     FM241300 34018G28KT P6SM SCT050=



000
FTUS43 KABR 232200 AAB
TAFABR
TAF AMD
KABR 232207Z 2322/2418 31021G29KT P6SM BKN027 OVC035
     FM240500 34020G30KT P6SM OVC050
     FM241300 34018G28KT P6SM SCT050=



000
FTUS43 KABR 232100 AAA
TAFABR
TAF AMD
KABR 232141Z 2322/2418 31017G27KT P6SM OVC030
     FM232200 31018G26KT P6SM OVC050
     FM240500 34020G30KT P6SM OVC050
     FM241300 34018G28KT P6SM SCT050=



000
FTUS43 KABR 232100 AAA
TAFATY
TAF AMD
KATY 232140Z 2322/2418 31017G27KT P6SM OVC025
     FM240300 30020G30KT P6SM OVC050
     FM241100 33025G35KT P6SM BKN050=



000
FTUS43 KABR 231900 AAA
TAFABR
TAF AMD
KABR 231932Z 2320/2418 31014G23KT P6SM OVC040
     FM232200 31018G26KT P6SM OVC050
     FM240500 34020G30KT P6SM OVC050
     FM241300 34018G28KT P6SM SCT050=



000
FTUS43 KABR 231700
TAFMBG
TAF
KMBG 231720Z 2318/2418 32018G28KT P6SM OVC035
     FM240200 33019KT P6SM OVC040
     FM241200 33017KT P6SM BKN040
     FM241500 33018KT P6SM FEW050=



000
FTUS43 KABR 231700
TAFABR
TAF
KABR 231720Z 2318/2418 28010KT P6SM OVC040
     FM232000 30017KT P6SM OVC040
     FM232200 31018G26KT P6SM OVC050
     FM240500 34020G30KT P6SM OVC050
     FM241300 34018G28KT P6SM SCT050=



000
FTUS43 KABR 231700
TAFPIR
TAF
KPIR 231720Z 2318/2418 29018G28KT P6SM BKN040
     FM232100 31025G35KT P6SM OVC040
     FM241000 32018G25KT P6SM BKN050
     FM241300 32018KT P6SM FEW050=



000
FTUS43 KABR 231700
TAFATY
TAF
KATY 231720Z 2318/2418 29012KT P6SM OVC080
     FM232000 30015KT P6SM OVC040
     FM240300 30020G30KT P6SM OVC050
     FM241100 33025G35KT P6SM BKN050=



000
FTUS43 KABR 231400 AAA
TAFMBG
TAF AMD
KMBG 231447Z 2315/2412 31008KT P6SM OVC040
     FM231600 31019G27KT P6SM OVC035
     FM231800 32026G35KT P6SM OVC035
     FM240300 33017KT P6SM OVC025=



000
FTUS43 KABR 231400 AAA
TAFPIR
TAF AMD
KPIR 231446Z 2315/2412 30013KT P6SM OVC150
     FM231700 31017G27KT P6SM OVC050
     FM231900 32025G35KT P6SM OVC035
     FM240300 32019KT P6SM OVC025=



000
FTUS43 KABR 231100
TAFMBG
TAF
KMBG 231122Z 2312/2412 29008KT P6SM OVC110
     FM231500 31019G27KT P6SM OVC035
     FM231800 32026G35KT P6SM OVC035
     FM240300 33017KT P6SM OVC025=



000
FTUS43 KABR 231100
TAFATY
TAF
KATY 231122Z 2312/2412 33010KT P6SM OVC070
     FM231900 30015G24KT P6SM OVC070
     FM240100 33020G28KT P6SM OVC015=



000
FTUS43 KABR 231100
TAFPIR
TAF
KPIR 231122Z 2312/2412 28008KT P6SM OVC080
     FM231400 31017G27KT P6SM OVC050
     FM231800 32025G35KT P6SM OVC035
     FM240300 32019KT P6SM OVC025=



000
FTUS43 KABR 231100
TAFABR
TAF
KABR 231122Z 2312/2412 30015KT P6SM OVC050
      TEMPO 2312/2314 -RA
     FM231800 31020G30KT P6SM OVC110
     FM240000 33024G34KT P6SM OVC025
     FM240300 34018KT P6SM OVC025=



000
FTUS43 KABR 231100 AAA
TAFABR
TAF AMD
KABR 231104Z 2311/2406 29018KT P6SM OVC050
      TEMPO 2312/2314 4SM -RA
     FM231600 30017G26KT P6SM SCT090 BKN150
     FM240100 33024G31KT P6SM OVC025=



000
FTUS43 KABR 230500
TAFMBG
TAF
KMBG 230538Z 2306/2406 VRB06KT P6SM -RA BKN070 OVC090
     FM230900 30010KT P6SM OVC100
     FM231500 31017G24KT P6SM BKN150
     FM232000 32026G34KT P6SM BKN150
     FM240100 33015G24KT P6SM OVC025=



000
FTUS43 KABR 230500
TAFPIR
TAF
KPIR 230538Z 2306/2406 VRB06KT P6SM VCSH BKN080 OVC120
      TEMPO 2306/2309 -RA BKN060 OVC080
     FM230900 30010KT P6SM OVC080
     FM231200 30016G25KT P6SM SCT090 BKN150
     FM231800 32029G37KT P6SM BKN150=



000
FTUS43 KABR 230500
TAFABR
TAF
KABR 230538Z 2306/2406 21007KT P6SM SCT100 BKN250
     FM230900 27009KT P6SM OVC090
     FM231600 30017G26KT P6SM SCT090 BKN150
     FM240100 33024G31KT P6SM OVC025=



000
FTUS43 KABR 230500
TAFATY
TAF
KATY 230538Z 2306/2406 18007KT P6SM BKN110 OVC250
     FM230800 26008KT P6SM BKN090 OVC150
     FM231100 29010KT P6SM OVC090
     FM231800 30015G24KT P6SM SCT090 BKN150
     FM240100 33023G30KT P6SM OVC015=



000
FTUS43 KABR 230400 AAD
TAFATY
TAF AMD
KATY 230443Z 2305/2324 17007KT P6SM BKN110 OVC250
     FM230800 26008KT 5SM BR BKN090 OVC150
     FM231100 29008KT P6SM OVC090
     FM231800 30015G24KT P6SM SCT090 BKN150=



000
FTUS43 KABR 230400 AAD
TAFATY
TAF AMD
KATY 230443Z 2305/2324 17007KT P6SM BKN110 OVC250
     FM230800 26008KT 5SM BR BKN090 OVC150
     FM231100 29008KT P6SM OVC090
     FM231800 30015G24KT P6SM SCT090 BKN150=



000
FTUS43 KABR 230400 AAB
TAFABR
TAF AMD
KABR 230442Z 2305/2324 18006KT P6SM BKN250
     FM230600 21007KT P6SM SCT100 BKN250
     FM230900 27009KT P6SM OVC090
     FM231600 30017G26KT P6SM SCT090 BKN150=



000
FTUS43 KABR 230400 AAB
TAFABR
TAF AMD
KABR 230442Z 2305/2324 18006KT P6SM BKN250
     FM230600 21007KT P6SM SCT100 BKN250
     FM230900 27009KT P6SM OVC090
     FM231600 30017G26KT P6SM SCT090 BKN150=



000
FTUS43 KABR 230200 AAA
TAFABR
TAF AMD
KABR 230243Z 2303/2324 19006KT P6SM OVC250
      TEMPO 2303/2306 5SM BR
     FM230600 21007KT 6SM BR SCT100 BKN250
     FM230900 27009KT P6SM OVC090
     FM231600 30017G26KT P6SM SCT090 BKN150=



000
FTUS43 KABR 230200 AAC
TAFATY
TAF AMD
KATY 230239Z 2303/2324 17008KT 6SM BR OVC250
      TEMPO 2303/2304 4SM BR
     FM230400 19010KT 4SM BR BKN250
     FM230800 26008KT 5SM BR BKN090 OVC150
     FM231100 29008KT P6SM OVC090
     FM231800 30015G24KT P6SM SCT090 BKN150=



000
FTUS43 KABR 230100 AAB
TAFATY
TAF AMD
KATY 230134Z 2302/2324 16011KT 6SM BR FEW004 OVC250
      TEMPO 2302/2304 2SM BR
     FM230400 19010KT 2SM BR BKN250
     FM230800 26008KT 5SM BR BKN090 OVC150
     FM231100 29008KT P6SM OVC090
     FM231800 30015G24KT P6SM SCT090 BKN150=



000
FTUS43 KABR 230000 AAA
TAFATY
TAF AMD
KATY 230025Z 2300/2324 16011KT 4SM BR SCT004
      TEMPO 2300/2304 2SM BR
     FM230400 19010KT 2SM BR FEW004 BKN250
     FM230800 26008KT 5SM BR BKN090 OVC150
     FM231100 29008KT P6SM OVC090
     FM231800 30015G24KT P6SM SCT090 BKN150=



000
FTUS43 KABR 222300
TAFPIR
TAF
KPIR 222340Z 2300/2324 30006KT P6SM SCT100 BKN250
     FM230600 30010KT P6SM OVC090
     FM231100 30016G25KT P6SM SCT090 BKN150
     FM231700 31029G38KT P6SM BKN150=



000
FTUS43 KABR 222300
TAFABR
TAF
KABR 222340Z 2300/2324 18009KT P6SM BKN250
      TEMPO 2302/2306 3SM BR
     FM230600 21007KT 3SM BR SCT100 BKN250
     FM230900 27009KT P6SM OVC090
     FM231600 30017G26KT P6SM SCT090 BKN150=



000
FTUS43 KABR 222300
TAFATY
TAF
KATY 222340Z 2300/2324 16011KT 4SM BR OVC004
      TEMPO 2300/2304 2SM BR
     FM230400 19010KT 2SM BR FEW004 BKN250
     FM230800 26008KT 5SM BR BKN090 OVC150
     FM231100 29008KT P6SM OVC090
     FM231800 30015G24KT P6SM SCT090 BKN150=



000
FTUS43 KABR 222300
TAFMBG
TAF
KMBG 222340Z 2300/2324 VRB06KT P6SM FEW100 BKN250
     FM230600 30012KT P6SM OVC100
     FM231500 31017G24KT P6SM BKN150
     FM232000 32026G34KT P6SM BKN150=



000
FTUS43 KABR 222200 AAB
TAFATY
TAF AMD
KATY 222250Z 2223/2318 16011KT 6SM BR FEW006
      TEMPO 2223/2301 4SM BR
     FM230500 21006KT P6SM BKN100
     FM230900 27010KT P6SM OVC050=



000
FTUS43 KABR 222100 AAA
TAFATY
TAF AMD
KATY 222150Z 2222/2318 17011KT P6SM BKN180
      TEMPO 2222/2224 4SM BR SCT007
     FM230600 21006KT P6SM BKN100
     FM231000 27010KT P6SM OVC050=



000
FTUS43 KABR 221700
TAFATY
TAF
KATY 221740Z 2218/2318 17011KT P6SM BKN180
     FM230600 21006KT P6SM BKN100
     FM231000 27010KT P6SM OVC050=



000
FTUS43 KABR 221700
TAFPIR
TAF
KPIR 221740Z 2218/2318 15007KT P6SM SCT200
     FM222200 23007KT P6SM BKN150
     FM230400 30010KT P6SM OVC070
     FM231200 30016G23KT P6SM BKN150=



000
FTUS43 KABR 221700
TAFABR
TAF
KABR 221740Z 2218/2318 18009KT P6SM BKN180
     FM230600 24007KT P6SM BKN090
     FM231600 27014KT P6SM BKN090=



000
FTUS43 KABR 221700
TAFMBG
TAF
KMBG 221740Z 2218/2318 16010KT P6SM SCT200
     FM222300 22006KT P6SM BKN100
     FM230400 31008KT P6SM OVC100
     FM231200 30014KT P6SM BKN150
     FM231600 31017G24KT P6SM BKN150=



000
FTUS43 KABR 221600 AAB
TAFATY
TAF AMD
KATY 221618Z 2216/2312 17009KT 4SM BR SKC
      TEMPO 2216/2217 1SM BR BKN002
     FM221800 18009KT P6SM BKN250
     FM230800 26007KT P6SM OVC100=



000
FTUS43 KABR 221400 AAA
TAFATY
TAF AMD
KATY 221455Z 2215/2312 17009KT 4SM BR SKC
      TEMPO 2215/2217 P6SM NSW
     FM221700 18009KT P6SM BKN250
     FM230800 26007KT P6SM OVC100=



000
FTUS43 KABR 221300 AAA
TAFPIR
TAF AMD
KPIR 221310Z 2213/2312 VRB05KT P6SM SKC
      TEMPO 2213/2215 1/2SM FZFG VV002
     FM221500 22007KT P6SM OVC250
     FM230300 30010KT P6SM OVC100
     FM230900 30016G23KT P6SM OVC250=



000
FTUS43 KABR 221100
TAFMBG
TAF
KMBG 221124Z 2212/2312 14006KT P6SM SCT250
     FM221400 18007KT P6SM OVC250
     FM230200 32008KT P6SM OVC100
     FM230900 29014KT P6SM OVC250=



000
FTUS43 KABR 221100
TAFABR
TAF
KABR 221124Z 2212/2312 17008KT P6SM SKC
     FM221600 18009KT P6SM OVC250
     FM230600 24007KT P6SM OVC100=



000
FTUS43 KABR 221100
TAFPIR
TAF
KPIR 221124Z 2212/2312 VRB05KT P6SM SKC
      TEMPO 2212/2215 2SM BR SCT001
     FM221500 22007KT P6SM OVC250
     FM230300 30010KT P6SM OVC100
     FM230900 30016G23KT P6SM OVC250=



000
FTUS43 KABR 221100
TAFATY
TAF
KATY 221124Z 2212/2312 17009KT P6SM SKC
     FM221700 18009KT P6SM OVC250
     FM230800 26007KT P6SM OVC100=



000
FTUS43 KABR 221100 AAA
TAFPIR
TAF AMD
KPIR 221104Z 2211/2306 21008KT P6SM SCT250
      TEMPO 2211/2214 3/4SM BR VV001=



000
FTUS43 KABR 220500
TAFMBG
TAF
KMBG 220538Z 2206/2306 18007KT P6SM SCT250=



000
FTUS43 KABR 220500
TAFATY
TAF
KATY 220538Z 2206/2306 17008KT P6SM SCT250=



000
FTUS43 KABR 220500
TAFPIR
TAF
KPIR 220538Z 2206/2306 21008KT P6SM SCT250=



000
FTUS43 KABR 220500
TAFABR
TAF
KABR 220538Z 2206/2306 18008KT P6SM SCT250=



000
FTUS43 KABR 212300
TAFATY
TAF
KATY 212328Z 2200/2224 19010KT P6SM SCT120 BKN200
     FM220700 18005KT P6SM SCT250
     FM221000 17005KT 3SM BR SKC
     FM221500 18008KT P6SM SCT250=



000
FTUS43 KABR 212300
TAFABR
TAF
KABR 212328Z 2200/2224 19008KT P6SM SCT120 BKN200
     FM220500 18005KT P6SM SKC
     FM220900 17005KT 3SM BR SKC
     FM221500 18008KT P6SM SCT250=



000
FTUS43 KABR 212300
TAFMBG
TAF
KMBG 212328Z 2200/2224 18005KT P6SM SCT250
     FM221500 16010KT P6SM SCT250=



000
FTUS43 KABR 212300
TAFPIR
TAF
KPIR 212328Z 2200/2224 21004KT P6SM SCT250
     FM221500 18009KT P6SM SCT250=



000
FTUS43 KABR 212100 AAA
TAFMBG
TAF AMD
KMBG 212150Z 2122/2218 VRB06KT P6SM SCT250
     FM220600 17006KT P6SM SCT250=



000
FTUS43 KABR 212100 AAA
TAFABR
TAF AMD
KABR 212150Z 2122/2218 19012KT P6SM BKN250
     FM220100 20007KT P6SM SCT250=



000
FTUS43 KABR 212100 AAA
TAFATY
TAF AMD
KATY 212150Z 2122/2218 19014G23KT P6SM OVC250
     FM220200 21009KT P6SM SCT250=



000
FTUS43 KABR 212100 AAA
TAFPIR
TAF AMD
KPIR 212150Z 2122/2218 23004KT P6SM OVC250
     FM220200 24006KT P6SM SCT250
     FM221100 18008KT P6SM SCT250=



000
FTUS43 KABR 212100 AAA
TAFMBG
TAF AMD
KMBG 212150Z 2122/2218 VRB06KT P6SM SCT250
     FM220600 17006KT P6SM SCT250=



000
FTUS43 KABR 212100 AAA
TAFABR
TAF AMD
KABR 212150Z 2122/2218 19012KT P6SM BKN250
     FM220100 20007KT P6SM SCT250=



000
FTUS43 KABR 212100 AAA
TAFATY
TAF AMD
KATY 212150Z 2122/2218 19014G23KT P6SM OVC250
     FM220200 21009KT P6SM SCT250=



000
FTUS43 KABR 212100 AAA
TAFPIR
TAF AMD
KPIR 212150Z 2122/2218 23004KT P6SM OVC250
     FM220200 24006KT P6SM SCT250
     FM221100 18008KT P6SM SCT250=



000
FTUS43 KABR 211700
TAFATY
TAF
KATY 211720Z 2118/2218 19020G27KT P6SM SKC
     FM220200 21009KT P6SM SCT250=



000
FTUS43 KABR 211700
TAFABR
TAF
KABR 211720Z 2118/2218 19015KT P6SM SKC
     FM220100 20007KT P6SM SCT250=



000
FTUS43 KABR 211700
TAFPIR
TAF
KPIR 211720Z 2118/2218 20004KT P6SM SKC
     FM220000 VRB05KT P6SM SCT250=



000
FTUS43 KABR 211700
TAFMBG
TAF
KMBG 211720Z 2118/2218 20006KT P6SM SKC
     FM220000 VRB05KT P6SM SCT250=



000
FTUS43 KABR 211600 AAA
TAFATY
TAF AMD
KATY 211602Z 2116/2212 19017G27KT P6SM SKC
     FM220200 21009KT P6SM SCT250=



000
FTUS43 KABR 211600 AAA
TAFATY
TAF AMD
KATY 211602Z 2116/2212 19017G27KT P6SM SKC
     FM220200 21009KT P6SM SCT250=



000
FTUS43 KABR 211100
TAFATY
TAF
KATY 211125Z 2112/2212 17014KT P6SM SCT250
     FM211500 19017KT P6SM BKN250
     FM220200 21009KT P6SM SCT250=



000
FTUS43 KABR 211100
TAFMBG
TAF
KMBG 211125Z 2112/2212 17008KT P6SM BKN250
     FM220000 VRB05KT P6SM SCT250=



000
FTUS43 KABR 211100
TAFPIR
TAF
KPIR 211125Z 2112/2212 15010KT P6SM BKN250
     FM220000 VRB05KT P6SM SCT250=



000
FTUS43 KABR 211100
TAFABR
TAF
KABR 211125Z 2112/2212 18015KT P6SM BKN250
     FM220100 20007KT P6SM SCT250=



000
FTUS43 KABR 210500
TAFPIR
TAF
KPIR 210526Z 2106/2206 15011KT P6SM SCT200
     FM211200 19009KT P6SM BKN120
     FM220100 21005KT P6SM SCT250=



000
FTUS43 KABR 210500
TAFMBG
TAF
KMBG 210526Z 2106/2206 14011KT P6SM SCT200
     FM211200 19006KT P6SM BKN120
     FM220100 23006KT P6SM SCT250=



000
FTUS43 KABR 210500
TAFATY
TAF
KATY 210526Z 2106/2206 17010KT P6SM SKC
     FM211500 19017G23KT P6SM BKN120
     FM220100 20011KT P6SM BKN100=



000
FTUS43 KABR 210500
TAFABR
TAF
KABR 210526Z 2106/2206 17010KT P6SM SKC
     FM211600 19013KT P6SM BKN120=



000
FTUS43 KABR 210400 AAA
TAFPIR
TAF AMD
KPIR 210436Z 2105/2124 15010KT P6SM SKC
     FM211600 20008KT P6SM SKC=



000
FTUS43 KABR 210400 AAA
TAFMBG
TAF AMD
KMBG 210419Z 2104/2124 18009KT P6SM BKN010
     FM211000 18010KT P6SM SKC=



000
FTUS43 KABR 210400 AAA
TAFMBG
TAF AMD
KMBG 210419Z 2104/2124 18009KT P6SM BKN010
     FM211000 18010KT P6SM SKC=



000
FTUS43 KABR 210300 AAA
TAFABR
TAF AMD
KABR 210342Z 2104/2124 16008KT P6SM SKC
     FM210700 17010KT P6SM OVC008
     FM211100 18011KT 5SM BR OVC005
     FM211500 19010KT P6SM OVC009
     FM211900 19010KT P6SM OVC015=



000
FTUS43 KABR 210300 AAA
TAFABR
TAF AMD
KABR 210342Z 2104/2124 16008KT P6SM SKC
     FM210700 17010KT P6SM OVC008
     FM211100 18011KT 5SM BR OVC005
     FM211500 19010KT P6SM OVC009
     FM211900 19010KT P6SM OVC015=



    US Dept of Commerce
    National Oceanic and Atmospheric Administration
    National Weather Service
    1325 East West Highway
    Silver Spring, MD 20910
    Page Author: NWS Internet Services Team
Disclaimer
Information Quality
Credits
Glossary
Privacy Policy
Freedom of Information Act (FOIA)
About Us
Career Opportunities